createdAt,value
2019-02-11T00:01:52.037Z,97042.12
2019-02-11T00:03:59.711Z,97043.73
2019-02-11T00:06:02.977Z,97047.53
2019-02-11T00:08:07.098Z,97055.09
2019-02-11T00:10:14.846Z,97020.19
2019-02-11T00:12:19.020Z,97041.83
2019-02-11T00:14:25.121Z,97062.95
2019-02-11T00:16:31.696Z,97029.11
2019-02-11T00:18:39.090Z,97056.72
2019-02-11T00:20:45.675Z,97042.11
2019-02-11T00:22:49.840Z,97040.98
2019-02-11T00:24:55.044Z,97096.75
2019-02-11T00:26:59.237Z,97068.86
2019-02-11T00:29:03.550Z,97028.53
2019-02-11T00:31:08.393Z,97055.86
2019-02-11T00:33:12.438Z,97033.14
2019-02-11T00:35:18.252Z,97069.67
2019-02-11T00:37:23.276Z,97043.69
2019-02-11T00:39:27.286Z,97067.23
2019-02-11T00:41:33.183Z,97066.71
2019-02-11T00:43:42.303Z,97072.41
2019-02-11T00:45:47.006Z,97045.60
2019-02-11T00:47:51.148Z,97085.12
2019-02-11T00:49:56.225Z,97060.23
2019-02-11T00:52:03.366Z,97067.55
2019-02-11T00:54:07.638Z,97086.20
2019-02-11T00:56:12.510Z,97067.00
2019-02-11T00:58:19.429Z,97079.70
2019-02-11T01:00:24.250Z,97088.61
2019-02-11T01:02:28.339Z,97091.84
2019-02-11T01:04:32.490Z,97086.44
2019-02-11T01:06:36.756Z,97082.09
2019-02-11T01:08:40.747Z,97050.16
2019-02-11T01:10:45.518Z,97092.33
2019-02-11T01:12:49.317Z,97084.21
2019-02-11T01:14:53.215Z,97092.59
2019-02-11T01:16:57.977Z,97084.18
2019-02-11T01:19:01.906Z,97081.98
2019-02-11T01:21:06.092Z,97107.14
2019-02-11T01:23:10.022Z,97093.06
2019-02-11T01:25:13.862Z,97089.81
2019-02-11T01:27:17.957Z,97089.25
2019-02-11T01:29:21.912Z,97090.34
2019-02-11T01:31:26.919Z,97088.98
2019-02-11T01:33:30.784Z,97100.91
2019-02-11T01:35:35.927Z,97065.49
2019-02-11T01:37:39.780Z,97064.37
2019-02-11T01:39:43.796Z,97095.75
2019-02-11T01:41:48.583Z,97101.16
2019-02-11T01:43:56.092Z,97088.97
2019-02-11T01:46:02.370Z,97088.42
2019-02-11T01:48:06.259Z,97087.60
2019-02-11T01:50:12.172Z,97108.70
2019-02-11T01:52:16.354Z,97104.61
2019-02-11T01:54:20.293Z,97086.19
2019-02-11T01:56:25.053Z,97077.23
2019-02-11T01:58:29.000Z,97101.89
2019-02-11T02:00:32.875Z,97076.98
2019-02-11T02:02:37.142Z,97098.36
2019-02-11T02:04:41.059Z,97104.86
2019-02-11T02:06:45.923Z,97084.00
2019-02-11T02:08:49.940Z,97098.86
2019-02-11T02:10:54.199Z,97079.09
2019-02-11T02:12:58.308Z,97114.00
2019-02-11T02:15:02.052Z,97112.91
2019-02-11T02:17:06.794Z,97097.80
2019-02-11T02:19:10.742Z,97096.99
2019-02-11T02:21:15.379Z,97118.83
2019-02-11T02:23:19.560Z,97116.11
2019-02-11T02:25:24.292Z,97138.03
2019-02-11T02:27:28.279Z,97143.97
2019-02-11T02:29:33.675Z,97135.84
2019-02-11T02:31:37.608Z,97134.44
2019-02-11T02:33:41.556Z,97155.81
2019-02-11T02:35:45.655Z,97149.63
2019-02-11T02:37:49.591Z,97150.47
2019-02-11T02:39:53.886Z,97135.02
2019-02-11T02:41:57.840Z,97152.57
2019-02-11T02:44:01.687Z,97124.71
2019-02-11T02:46:06.678Z,97103.03
2019-02-11T02:48:10.717Z,97141.40
2019-02-11T02:50:15.746Z,97144.92
2019-02-11T02:52:19.682Z,97161.91
2019-02-11T02:54:24.630Z,97172.47
2019-02-11T02:56:28.671Z,97161.55
2019-02-11T02:58:32.691Z,97142.59
2019-02-11T03:00:36.920Z,97150.91
2019-02-11T03:02:40.841Z,97183.56
2019-02-11T03:04:45.011Z,97190.88
2019-02-11T03:06:48.900Z,97188.44
2019-02-11T03:08:53.400Z,97216.77
2019-02-11T03:10:57.270Z,97210.77
2019-02-11T03:13:01.255Z,97207.18
2019-02-11T03:15:06.702Z,97213.12
2019-02-11T03:17:11.018Z,97237.44
2019-02-11T03:19:15.793Z,97239.05
2019-02-11T03:21:22.072Z,97233.70
2019-02-11T03:23:28.594Z,97249.42
2019-02-11T03:25:32.522Z,97244.34
2019-02-11T03:27:37.745Z,97256.84
2019-02-11T03:29:45.723Z,97217.84
2019-02-11T03:31:49.645Z,97259.91
2019-02-11T03:33:54.345Z,97275.53
2019-02-11T03:35:58.410Z,97270.39
2019-02-11T03:38:02.355Z,97290.39
2019-02-11T03:40:06.870Z,97287.16
2019-02-11T03:42:11.009Z,97296.63
2019-02-11T03:44:15.772Z,97318.24
2019-02-11T03:46:19.721Z,97283.38
2019-02-11T03:48:23.673Z,97316.55
2019-02-11T03:50:28.558Z,97303.57
2019-02-11T03:52:32.693Z,97331.34
2019-02-11T03:54:37.639Z,97324.40
2019-02-11T03:56:42.944Z,97346.02
2019-02-11T03:58:46.966Z,97347.37
2019-02-11T04:00:51.598Z,97343.84
2019-02-11T04:02:55.681Z,97351.95
2019-02-11T04:04:59.675Z,97358.97
2019-02-11T04:07:04.414Z,97363.28
2019-02-11T04:09:08.282Z,97381.11
2019-02-11T04:11:12.213Z,97372.96
2019-02-11T04:13:16.099Z,97389.52
2019-02-11T04:15:20.080Z,97407.56
2019-02-11T04:17:24.642Z,97409.48
2019-02-11T04:19:29.523Z,97416.01
2019-02-11T04:21:34.465Z,97412.75
2019-02-11T04:23:38.465Z,97437.15
2019-02-11T04:25:42.432Z,97431.25
2019-02-11T04:27:46.595Z,97430.69
2019-02-11T04:29:50.495Z,97445.81
2019-02-11T04:31:54.989Z,97449.83
2019-02-11T04:34:02.069Z,97462.25
2019-02-11T04:36:06.207Z,97471.93
2019-02-11T04:38:10.475Z,97475.20
2019-02-11T04:40:14.462Z,97488.23
2019-02-11T04:42:21.309Z,97491.71
2019-02-11T04:44:33.651Z,97500.53
2019-02-11T04:46:30.687Z,97509.19
2019-02-11T04:48:34.578Z,97509.50
2019-02-11T04:50:38.995Z,97516.60
2019-02-11T04:52:43.145Z,97521.19
2019-02-11T04:54:47.132Z,97525.77
2019-02-11T04:56:51.544Z,97535.48
2019-02-11T04:58:55.443Z,97541.98
2019-02-11T05:00:59.506Z,97532.81
2019-02-11T05:03:04.349Z,97540.67
2019-02-11T05:05:09.042Z,97536.61
2019-02-11T05:07:13.811Z,97547.37
2019-02-11T05:09:18.070Z,97563.50
2019-02-11T05:11:22.049Z,97567.52
2019-02-11T05:13:28.711Z,97556.91
2019-02-11T05:15:34.705Z,97568.77
2019-02-11T05:17:38.815Z,97579.01
2019-02-11T05:22:04.388Z,97582.48
2019-02-11T05:26:25.376Z,97594.50
2019-02-11T05:28:29.513Z,97596.07
2019-02-11T05:30:33.454Z,97586.30
2019-02-11T05:32:37.332Z,97598.73
2019-02-11T05:34:41.357Z,97604.95
2019-02-11T05:36:48.253Z,97614.41
2019-02-11T05:38:52.304Z,97608.01
2019-02-11T05:40:59.280Z,97616.38
2019-02-11T05:43:03.155Z,97612.94
2019-02-11T05:45:07.438Z,97634.55
2019-02-11T05:47:11.531Z,97629.80
2019-02-11T05:49:15.553Z,97635.09
2019-02-11T05:51:20.659Z,97633.94
2019-02-11T05:53:24.580Z,97641.16
2019-02-11T05:55:31.279Z,97642.72
2019-02-11T05:57:36.818Z,97652.38
2019-02-11T05:59:40.884Z,97647.81
2019-02-11T06:01:45.899Z,97657.12
2019-02-11T06:03:49.891Z,97644.27
2019-02-11T06:05:53.921Z,97649.42
2019-02-11T06:07:57.873Z,97642.92
2019-02-11T06:10:02.012Z,97662.05
2019-02-11T06:12:05.997Z,97676.48
2019-02-11T06:14:10.163Z,97677.62
2019-02-11T06:16:14.266Z,97683.77
2019-02-11T06:18:18.204Z,97697.05
2019-02-11T06:20:22.428Z,97694.63
2019-02-11T06:22:26.344Z,97700.91
2019-02-11T06:24:32.512Z,97705.42
2019-02-11T06:26:36.211Z,97706.30
2019-02-11T06:28:40.096Z,97716.89
2019-02-11T06:30:44.659Z,97729.27
2019-02-11T06:32:48.617Z,97731.75
2019-02-11T06:34:52.538Z,97735.25
2019-02-11T06:36:56.598Z,97735.86
2019-02-11T06:39:00.603Z,97744.55
2019-02-11T06:41:04.483Z,97750.83
2019-02-11T06:43:08.556Z,97760.56
2019-02-11T06:45:13.538Z,97760.56
2019-02-11T06:47:17.719Z,97765.69
2019-02-11T06:49:22.230Z,97768.72
2019-02-11T06:51:26.285Z,97773.30
2019-02-11T06:53:30.305Z,97784.98
2019-02-11T06:55:36.830Z,97785.34
2019-02-11T06:57:40.951Z,97790.03
2019-02-11T06:59:44.863Z,97788.02
2019-02-11T07:01:48.888Z,97799.24
2019-02-11T07:03:52.919Z,97804.50
2019-02-11T07:05:56.927Z,97803.45
2019-02-11T07:08:00.836Z,97810.48
2019-02-11T07:10:05.520Z,97811.31
2019-02-11T07:12:09.410Z,97828.56
2019-02-11T07:14:13.459Z,97834.49
2019-02-11T07:16:17.569Z,97832.89
2019-02-11T07:18:21.487Z,97838.24
2019-02-11T07:20:25.435Z,97840.06
2019-02-11T07:22:29.380Z,97847.53
2019-02-11T07:24:33.334Z,97851.84
2019-02-11T07:26:37.375Z,97861.30
2019-02-11T07:28:41.363Z,97870.57
2019-02-11T07:30:45.365Z,97878.21
2019-02-11T07:32:49.256Z,97880.92
2019-02-11T07:34:53.239Z,97895.20
2019-02-11T07:36:57.291Z,97897.21
2019-02-11T07:39:01.203Z,97900.95
2019-02-11T07:41:05.509Z,97901.84
2019-02-11T07:43:31.496Z,97902.48
2019-02-11T07:45:57.127Z,97909.05
2019-02-11T07:48:01.161Z,97904.20
2019-02-11T07:50:09.208Z,97907.23
2019-02-11T07:52:13.404Z,97908.06
2019-02-11T07:54:17.403Z,97916.54
2019-02-11T07:56:23.852Z,97914.94
2019-02-11T07:58:27.512Z,97923.62
2019-02-11T08:00:31.462Z,97925.95
2019-02-11T08:02:35.398Z,97934.39
2019-02-11T08:04:39.331Z,97931.93
2019-02-11T08:06:43.362Z,97926.74
2019-02-11T08:08:47.225Z,97938.69
2019-02-11T08:10:51.302Z,97939.27
2019-02-11T08:12:55.253Z,97940.10
2019-02-11T08:14:59.262Z,97942.75
2019-02-11T08:17:03.355Z,97952.15
2019-02-11T08:19:07.329Z,97964.78
2019-02-11T08:21:11.781Z,97960.20
2019-02-11T08:23:15.828Z,97956.61
2019-02-11T08:25:21.262Z,97964.97
2019-02-11T08:27:25.209Z,97965.48
2019-02-11T08:29:29.089Z,97970.44
2019-02-11T08:31:33.091Z,97971.02
2019-02-11T08:33:50.523Z,97959.44
2019-02-11T08:35:54.683Z,97971.84
2019-02-11T08:37:58.670Z,97978.73
2019-02-11T08:40:02.759Z,97976.30
2019-02-11T08:42:06.703Z,97994.18
2019-02-11T08:44:10.840Z,97992.64
2019-02-11T08:46:14.859Z,97987.91
2019-02-11T08:48:18.895Z,97996.33
2019-02-11T08:50:23.147Z,97995.19
2019-02-11T08:52:27.243Z,98001.80
2019-02-11T08:54:31.642Z,98015.25
2019-02-11T08:56:35.792Z,98020.36
2019-02-11T08:58:40.037Z,98025.30
2019-02-11T09:00:44.201Z,98022.60
2019-02-11T09:02:48.291Z,98022.32
2019-02-11T09:04:52.364Z,98026.28
2019-02-11T09:06:56.276Z,98021.86
2019-02-11T09:09:00.363Z,98047.55
2019-02-11T09:11:04.578Z,98045.67
2019-02-11T09:13:08.576Z,98052.66
2019-02-11T09:15:12.691Z,98053.73
2019-02-11T09:17:17.523Z,98058.89
2019-02-11T09:19:21.614Z,98072.47
2019-02-11T09:21:25.556Z,98058.67
2019-02-11T09:23:29.744Z,98069.49
2019-02-11T09:25:33.704Z,98077.81
2019-02-11T09:27:37.771Z,98076.41
2019-02-11T09:29:41.928Z,98094.56
2019-02-11T09:31:48.183Z,98070.84
2019-02-11T09:33:52.209Z,98084.43
2019-02-11T09:35:56.263Z,98092.98
2019-02-11T09:38:00.251Z,98094.98
2019-02-11T09:40:04.444Z,98101.59
2019-02-11T09:42:08.480Z,98107.45
2019-02-11T09:44:12.368Z,98117.45
2019-02-11T09:46:16.555Z,98113.91
2019-02-11T09:48:20.566Z,98128.05
2019-02-11T09:50:30.688Z,98127.10
2019-02-11T09:52:34.727Z,98142.35
2019-02-11T09:54:38.779Z,98145.27
2019-02-11T09:56:42.950Z,98150.86
2019-02-11T09:58:47.019Z,98152.03
2019-02-11T10:00:54.348Z,98149.05
2019-02-11T10:02:58.292Z,98164.52
2019-02-11T10:05:02.419Z,98168.88
2019-02-11T10:07:06.545Z,98164.95
2019-02-11T10:09:13.431Z,98170.70
2019-02-11T10:11:17.418Z,98174.31
2019-02-11T10:13:22.598Z,98171.53
2019-02-11T10:15:26.903Z,98166.08
2019-02-11T10:17:30.720Z,98166.07
2019-02-11T10:19:34.780Z,98170.48
2019-02-11T10:21:38.824Z,98167.73
2019-02-11T10:23:42.858Z,98178.53
2019-02-11T10:25:46.734Z,98172.02
2019-02-11T10:27:50.747Z,98181.45
2019-02-11T10:29:54.818Z,98175.46
2019-02-11T10:31:58.960Z,98185.68
2019-02-11T10:34:02.866Z,98189.91
2019-02-11T10:36:07.035Z,98207.59
2019-02-11T10:38:11.083Z,98199.03
2019-02-11T10:40:15.101Z,98199.05
2019-02-11T10:42:19.060Z,98196.30
2019-02-11T10:44:23.019Z,98211.84
2019-02-11T10:46:26.991Z,98210.11
2019-02-11T10:48:30.986Z,98204.54
2019-02-11T10:50:35.086Z,98205.33
2019-02-11T10:52:39.125Z,98193.82
2019-02-11T10:54:43.154Z,98198.52
2019-02-11T10:56:47.018Z,98196.36
2019-02-11T10:58:50.931Z,98207.16
2019-02-11T11:00:56.525Z,98192.23
2019-02-11T11:03:00.437Z,98218.85
2019-02-11T11:05:04.826Z,98223.63
2019-02-11T11:07:08.811Z,98232.41
2019-02-11T11:09:14.985Z,98243.15
2019-02-11T11:11:19.122Z,98250.45
2019-02-11T11:13:26.014Z,98249.89
2019-02-11T11:15:30.015Z,98246.44
2019-02-11T11:17:34.071Z,98240.41
2019-02-11T11:19:37.951Z,98214.39
2019-02-11T11:21:42.004Z,98252.16
2019-02-11T11:23:45.997Z,98240.66
2019-02-11T11:25:50.096Z,98241.77
2019-02-11T11:27:54.141Z,98252.34
2019-02-11T11:29:58.266Z,98223.05
2019-02-11T11:32:02.504Z,98210.28
2019-02-11T11:34:06.548Z,98240.66
2019-02-11T11:36:10.722Z,98246.63
2019-02-11T11:38:14.593Z,98247.91
2019-02-11T11:40:18.800Z,98272.63
2019-02-11T11:42:22.675Z,98254.20
2019-02-11T11:44:26.693Z,98274.83
2019-02-11T11:46:38.707Z,98274.92
2019-02-11T11:48:36.949Z,98271.37
2019-02-11T11:50:40.958Z,98284.22
2019-02-11T11:52:45.039Z,98259.81
2019-02-11T11:54:49.017Z,98292.74
2019-02-11T11:56:53.102Z,98294.33
2019-02-11T11:58:59.859Z,98282.55
2019-02-11T12:01:03.955Z,98293.37
2019-02-11T12:03:08.065Z,98259.08
2019-02-11T12:05:14.311Z,98293.55
2019-02-11T12:07:18.266Z,98297.47
2019-02-11T12:09:22.159Z,98301.37
2019-02-11T12:11:26.448Z,98305.45
2019-02-11T12:13:30.517Z,98308.37
2019-02-11T12:15:34.550Z,98309.23
2019-02-11T12:17:39.771Z,98312.69
2019-02-11T12:19:43.725Z,98310.34
2019-02-11T12:21:47.614Z,98334.66
2019-02-11T12:23:51.673Z,98332.78
2019-02-11T12:25:55.577Z,98325.09
2019-02-11T12:28:00.158Z,98346.61
2019-02-11T12:30:04.193Z,98304.35
2019-02-11T12:32:08.207Z,98332.87
2019-02-11T12:34:12.283Z,98331.98
2019-02-11T12:36:16.468Z,98334.94
2019-02-11T12:38:23.486Z,98342.55
2019-02-11T12:40:27.449Z,98341.25
2019-02-11T12:42:31.356Z,98343.55
2019-02-11T12:44:35.248Z,98342.41
2019-02-11T12:46:39.253Z,98346.48
2019-02-11T12:48:43.211Z,98339.48
2019-02-11T12:50:48.117Z,98341.95
2019-02-11T12:52:52.133Z,98353.69
2019-02-11T12:54:58.640Z,98348.53
2019-02-11T12:57:02.672Z,98373.00
2019-02-11T12:59:08.033Z,98366.28
2019-02-11T13:01:12.040Z,98369.77
2019-02-11T13:03:16.073Z,98369.84
2019-02-11T13:05:22.822Z,98365.64
2019-02-11T13:07:26.347Z,98379.36
2019-02-11T13:09:30.525Z,98381.55
2019-02-11T13:11:34.525Z,98360.44
2019-02-11T13:13:38.632Z,98378.13
2019-02-11T13:15:59.908Z,98372.89
2019-02-11T13:17:48.565Z,98391.09
2019-02-11T13:20:07.347Z,98397.66
2019-02-11T13:21:58.292Z,98398.45
2019-02-11T13:24:02.366Z,98395.00
2019-02-11T13:26:06.524Z,98402.38
2019-02-11T13:28:12.026Z,98397.53
2019-02-11T13:30:17.589Z,98391.27
2019-02-11T13:32:21.562Z,98410.05
2019-02-11T13:34:25.489Z,98412.75
2019-02-11T13:36:29.652Z,98422.45
2019-02-11T13:38:33.867Z,98423.53
2019-02-11T13:40:37.738Z,98428.22
2019-02-11T13:42:44.060Z,98424.21
2019-02-11T13:44:48.093Z,98431.82
2019-02-11T13:47:53.109Z,98436.13
2019-02-11T13:54:01.908Z,98435.61
2019-02-11T13:56:06.230Z,98447.44
2019-02-11T13:58:10.425Z,98449.17
2019-02-11T14:00:19.952Z,98446.73
2019-02-11T14:02:23.924Z,98458.72
2019-02-11T14:04:28.608Z,98463.66
2019-02-11T14:06:32.616Z,98474.50
2019-02-11T14:08:36.662Z,98464.42
2019-02-11T14:10:43.707Z,98473.91
2019-02-11T14:12:47.910Z,98486.70
2019-02-11T14:14:52.949Z,98479.33
2019-02-11T14:16:57.182Z,98483.98
2019-02-11T14:19:01.171Z,98461.43
2019-02-11T14:21:07.297Z,98482.22
2019-02-11T14:23:12.478Z,98497.20
2019-02-11T14:25:17.494Z,98485.83
2019-02-11T14:27:21.812Z,98492.61
2019-02-11T14:29:25.805Z,98516.39
2019-02-11T14:31:32.291Z,98519.41
2019-02-11T14:33:36.421Z,98509.16
2019-02-11T14:35:40.493Z,98516.52
2019-02-11T14:37:44.656Z,98531.29
2019-02-11T14:39:48.702Z,98519.81
2019-02-11T14:41:52.650Z,98539.17
2019-02-11T14:43:56.701Z,98534.55
2019-02-11T14:46:03.740Z,98555.51
2019-02-11T14:48:07.874Z,98550.75
2019-02-11T14:50:11.996Z,98552.87
2019-02-11T14:52:16.146Z,98564.59
2019-02-11T14:54:20.038Z,98566.09
2019-02-11T14:56:24.056Z,98553.30
2019-02-11T14:58:28.010Z,98574.27
2019-02-11T15:00:31.989Z,98564.19
2019-02-11T15:02:35.872Z,98565.99
2019-02-11T15:04:39.795Z,98577.59
2019-02-11T15:06:43.896Z,98578.41
2019-02-11T15:08:47.803Z,98561.64
2019-02-11T15:10:51.891Z,98577.67
2019-02-11T15:12:55.921Z,98588.30
2019-02-11T15:15:01.984Z,98579.02
2019-02-11T15:17:06.233Z,98587.39
2019-02-11T15:19:10.279Z,98595.22
2019-02-11T15:21:14.262Z,98597.92
2019-02-11T15:23:18.331Z,98548.55
2019-02-11T15:25:22.239Z,98595.22
2019-02-11T15:27:26.376Z,98610.78
2019-02-11T15:29:30.327Z,98618.78
2019-02-11T15:31:34.466Z,98612.08
2019-02-11T15:33:38.547Z,98600.71
2019-02-11T15:35:42.797Z,98615.91
2019-02-11T15:37:47.235Z,98590.98
2019-02-11T15:39:51.232Z,98606.48
2019-02-11T15:41:55.282Z,98619.20
2019-02-11T15:43:59.375Z,98629.70
2019-02-11T15:46:03.379Z,98621.33
2019-02-11T15:48:09.325Z,98627.20
2019-02-11T15:50:13.995Z,98642.66
2019-02-11T15:52:17.911Z,98654.23
2019-02-11T15:54:21.834Z,98651.59
2019-02-11T15:56:25.937Z,98665.22
2019-02-11T15:58:30.070Z,98646.56
2019-02-11T16:00:34.736Z,98654.38
2019-02-11T16:02:38.817Z,98645.66
2019-02-11T16:04:44.152Z,98654.16
2019-02-11T16:06:48.169Z,98609.08
2019-02-11T16:08:55.138Z,98655.01
2019-02-11T16:11:01.461Z,98670.20
2019-02-11T16:13:07.555Z,98663.49
2019-02-11T16:15:11.731Z,98660.63
2019-02-11T16:17:15.826Z,98662.23
2019-02-11T16:19:19.811Z,98666.22
2019-02-11T16:21:23.794Z,98674.11
2019-02-11T16:23:27.786Z,98648.00
2019-02-11T16:25:32.106Z,98668.85
2019-02-11T16:27:36.316Z,98678.93
2019-02-11T16:29:41.627Z,98687.82
2019-02-11T16:31:46.194Z,98685.55
2019-02-11T16:33:50.326Z,98699.41
2019-02-11T16:35:57.669Z,98662.84
2019-02-11T16:38:02.138Z,98694.52
2019-02-11T16:40:08.366Z,98701.29
2019-02-11T16:42:13.957Z,98701.21
2019-02-11T16:44:19.792Z,98702.80
2019-02-11T16:46:23.887Z,98702.25
2019-02-11T16:48:28.337Z,98704.08
2019-02-11T16:50:33.655Z,98707.16
2019-02-11T16:52:38.232Z,98710.22
2019-02-11T16:54:42.911Z,98721.34
2019-02-11T16:56:47.694Z,98713.65
2019-02-11T16:58:52.517Z,98731.64
2019-02-11T17:00:56.947Z,98739.13
2019-02-11T17:03:01.702Z,98744.38
2019-02-11T17:05:08.213Z,98752.66
2019-02-11T17:07:15.853Z,98749.63
2019-02-11T17:09:20.644Z,98748.83
2019-02-11T17:11:25.327Z,98745.80
2019-02-11T17:13:29.797Z,98751.53
2019-02-11T17:15:33.842Z,98745.97
2019-02-11T17:17:38.544Z,98777.52
2019-02-11T17:19:42.757Z,98777.28
2019-02-11T17:21:47.019Z,98780.59
2019-02-11T17:23:51.175Z,98784.14
2019-02-11T17:25:55.792Z,98781.52
2019-02-11T17:28:00.319Z,98785.66
2019-02-11T17:30:06.808Z,98791.91
2019-02-11T17:32:11.054Z,98807.93
2019-02-11T17:34:15.662Z,98807.81
2019-02-11T17:36:19.965Z,98809.77
2019-02-11T17:38:24.629Z,98801.73
2019-02-11T17:40:29.436Z,98821.30
2019-02-11T17:42:34.301Z,98827.23
2019-02-11T17:44:39.134Z,98829.73
2019-02-11T17:46:43.854Z,98854.20
2019-02-11T17:48:48.866Z,98866.68
2019-02-11T17:50:53.357Z,98873.26
2019-02-11T17:52:58.773Z,98870.55
2019-02-11T17:55:03.804Z,98878.88
2019-02-11T17:57:08.082Z,98891.41
2019-02-11T17:59:12.205Z,98887.66
2019-02-11T18:01:16.966Z,98887.58
2019-02-11T18:03:21.414Z,98907.81
2019-02-11T18:05:26.448Z,98896.14
2019-02-11T18:07:31.064Z,98907.29
2019-02-11T18:09:37.615Z,98913.23
2019-02-11T18:11:42.092Z,98923.45
2019-02-11T18:13:46.728Z,98928.98
2019-02-11T18:15:51.231Z,98942.33
2019-02-11T18:17:55.778Z,98940.14
2019-02-11T18:20:00.225Z,98951.20
2019-02-11T18:22:04.708Z,98950.78
2019-02-11T18:24:09.518Z,98962.56
2019-02-11T18:26:14.536Z,98966.86
2019-02-11T18:28:19.105Z,98973.63
2019-02-11T18:30:23.741Z,98974.28
2019-02-11T18:32:29.735Z,98977.64
2019-02-11T18:34:35.056Z,98973.81
2019-02-11T18:36:39.830Z,98989.13
2019-02-11T18:38:45.862Z,98991.41
2019-02-11T18:40:50.300Z,98986.42
2019-02-11T18:42:54.977Z,98998.22
2019-02-11T18:44:59.656Z,98997.28
2019-02-11T18:47:04.221Z,99000.73
2019-02-11T18:49:08.989Z,99009.27
2019-02-11T18:51:13.639Z,99011.55
2019-02-11T18:53:18.813Z,99013.64
2019-02-11T18:55:23.237Z,99020.02
2019-02-11T18:57:27.423Z,99033.64
2019-02-11T18:59:32.002Z,99032.00
2019-02-11T19:01:39.650Z,99038.77
2019-02-11T19:03:44.083Z,99039.69
2019-02-11T19:05:48.020Z,99043.33
2019-02-11T19:07:52.114Z,99048.96
2019-02-11T19:09:59.466Z,99048.13
2019-02-11T19:12:03.933Z,99050.31
2019-02-11T19:14:08.633Z,99058.95
2019-02-11T19:16:13.442Z,99054.59
2019-02-11T19:18:18.123Z,99061.77
2019-02-11T19:20:22.767Z,99070.91
2019-02-11T19:22:27.573Z,99085.40
2019-02-11T19:24:32.162Z,99088.40
2019-02-11T19:26:37.339Z,99099.22
2019-02-11T19:28:42.116Z,99095.67
2019-02-11T19:30:46.664Z,99103.77
2019-02-11T19:32:51.129Z,99105.75
2019-02-11T19:34:55.868Z,99112.92
2019-02-11T19:36:59.988Z,99120.00
2019-02-11T19:39:05.633Z,99123.73
2019-02-11T19:41:09.914Z,99126.11
2019-02-11T19:43:16.057Z,99124.98
2019-02-11T19:45:20.753Z,99122.39
2019-02-11T19:47:25.431Z,99128.61
2019-02-11T19:49:29.905Z,99120.06
2019-02-11T19:51:34.243Z,99119.77
2019-02-11T19:53:39.067Z,99124.84
2019-02-11T19:55:43.549Z,99119.84
2019-02-11T19:57:48.251Z,99135.55
2019-02-11T19:59:52.989Z,99141.36
2019-02-11T20:01:57.704Z,99143.26
2019-02-11T20:04:07.461Z,99149.69
2019-02-11T20:06:08.237Z,99152.91
2019-02-11T20:08:13.193Z,99163.21
2019-02-11T20:10:17.908Z,99168.62
2019-02-11T20:12:22.579Z,99163.21
2019-02-11T20:14:27.124Z,99165.70
2019-02-11T20:16:33.297Z,99162.87
2019-02-11T20:18:37.952Z,99169.97
2019-02-11T20:20:42.536Z,99167.27
2019-02-11T20:22:46.979Z,99174.23
2019-02-11T20:24:51.459Z,99176.61
2019-02-11T20:26:58.911Z,99174.86
2019-02-11T20:29:03.138Z,99174.02
2019-02-11T20:31:07.483Z,99178.92
2019-02-11T20:33:12.044Z,99190.25
2019-02-11T20:35:16.687Z,99195.14
2019-02-11T20:37:22.014Z,99192.44
2019-02-11T20:39:26.871Z,99195.75
2019-02-11T20:41:31.470Z,99194.80
2019-02-11T20:43:36.425Z,99200.61
2019-02-11T20:45:40.692Z,99211.70
2019-02-11T20:47:45.341Z,99211.98
2019-02-11T20:49:49.780Z,99223.73
2019-02-11T20:51:53.807Z,99230.49
2019-02-11T20:53:58.207Z,99234.84
2019-02-11T20:56:04.995Z,99231.75
2019-02-11T20:58:09.607Z,99231.35
2019-02-11T21:00:16.768Z,99227.92
2019-02-11T21:02:21.002Z,99235.64
2019-02-11T21:04:25.038Z,99238.45
2019-02-11T21:06:29.371Z,99245.94
2019-02-11T21:08:33.913Z,99243.84
2019-02-11T21:10:38.506Z,99251.50
2019-02-11T21:12:43.101Z,99253.87
2019-02-11T21:14:47.294Z,99252.23
2019-02-11T21:16:54.079Z,99260.00
2019-02-11T21:18:58.412Z,99255.33
2019-02-11T21:21:02.404Z,99253.97
2019-02-11T21:23:08.496Z,99255.11
2019-02-11T21:25:12.976Z,99243.16
2019-02-11T21:27:17.065Z,99242.83
2019-02-11T21:29:21.466Z,99239.38
2019-02-11T21:31:25.487Z,99231.16
2019-02-11T21:33:30.055Z,99239.48
2019-02-11T21:35:35.536Z,99252.16
2019-02-11T21:37:40.017Z,99258.06
2019-02-11T21:39:45.252Z,99253.39
2019-02-11T21:41:49.264Z,99249.61
2019-02-11T21:43:53.461Z,99250.72
2019-02-11T21:45:58.213Z,99261.02
2019-02-11T21:48:02.480Z,99267.44
2019-02-11T21:50:08.078Z,99272.84
2019-02-11T21:52:14.777Z,99275.88
2019-02-11T21:54:20.157Z,99281.06
2019-02-11T21:56:24.318Z,99275.88
2019-02-11T21:58:31.639Z,99298.33
2019-02-11T22:00:35.674Z,99292.80
2019-02-11T22:02:39.698Z,99295.50
2019-02-11T22:04:44.151Z,99300.19
2019-02-11T22:06:48.456Z,99303.06
2019-02-11T22:08:52.648Z,99316.45
2019-02-11T22:10:56.716Z,99313.51
2019-02-11T22:13:00.898Z,99319.12
2019-02-11T22:15:05.515Z,99322.71
2019-02-11T22:17:09.634Z,99324.36
2019-02-11T22:19:13.608Z,99313.81
2019-02-11T22:21:17.833Z,99314.53
2019-02-11T22:23:22.962Z,99316.06
2019-02-11T22:25:27.920Z,99313.74
2019-02-11T22:27:31.868Z,99300.45
2019-02-11T22:29:39.055Z,99308.76
2019-02-11T22:31:43.077Z,99305.97
2019-02-11T22:33:47.137Z,99306.61
2019-02-11T22:35:51.240Z,99316.06
2019-02-11T22:38:00.743Z,99318.05
2019-02-11T22:40:10.874Z,99320.86
2019-02-11T22:42:18.869Z,99324.36
2019-02-11T22:44:23.954Z,99318.54
2019-02-11T22:46:27.952Z,99325.63
2019-02-11T22:48:31.986Z,99322.71
2019-02-11T22:50:43.040Z,99321.48
2019-02-11T22:52:42.737Z,99319.12
2019-02-11T22:54:47.009Z,99322.03
2019-02-11T22:56:51.127Z,99333.01
2019-02-11T22:58:55.157Z,99344.98
2019-02-11T23:01:03.129Z,99345.92
2019-02-11T23:03:07.145Z,99346.37
2019-02-11T23:05:11.297Z,99343.29
2019-02-11T23:07:18.294Z,99351.06
2019-02-11T23:09:23.402Z,99350.94
2019-02-11T23:11:27.408Z,99356.85
2019-02-11T23:13:31.583Z,99367.02
2019-02-11T23:15:35.720Z,99365.38
2019-02-11T23:17:39.868Z,99367.36
2019-02-11T23:19:43.795Z,99367.27
2019-02-11T23:21:48.755Z,99370.31
2019-02-11T23:23:53.038Z,99368.57
2019-02-11T23:25:57.112Z,99379.30
2019-02-11T23:28:01.062Z,99378.58
2019-02-11T23:30:13.327Z,99379.54
2019-02-11T23:32:11.802Z,99378.14
2019-02-11T23:34:16.385Z,99385.02
2019-02-11T23:36:20.159Z,99390.93
2019-02-11T23:38:24.404Z,99393.30
2019-02-11T23:40:28.383Z,99397.98
2019-02-11T23:42:32.511Z,99405.08
2019-02-11T23:44:36.586Z,99407.57
2019-02-11T23:46:40.565Z,99413.81
2019-02-11T23:48:44.533Z,99427.08
2019-02-11T23:50:48.680Z,99426.06
2019-02-11T23:52:52.600Z,99426.06
2019-02-11T23:54:56.664Z,99426.91
2019-02-11T23:57:00.555Z,99430.23
2019-02-11T23:59:04.543Z,99435.81
